sensor_id;sensor_type;location;lat;lon;timestamp;P1;durP1;ratioP1;P2;durP2;ratioP2
64188;SDS011;50493;50.970;10.082;2023-03-29T00:01:35;8.02;;;3.58;;
64188;SDS011;50493;50.970;10.082;2023-03-29T00:04:05;7.45;;;3.85;;
64188;SDS011;50493;50.970;10.082;2023-03-29T00:06:32;7.63;;;3.45;;
64188;SDS011;50493;50.970;10.082;2023-03-29T00:08:58;7.28;;;3.55;;
64188;SDS011;50493;50.970;10.082;2023-03-29T00:11:23;8.35;;;4.03;;
64188;SDS011;50493;50.970;10.082;2023-03-29T00:13:49;6.97;;;3.60;;
64188;SDS011;50493;50.970;10.082;2023-03-29T00:16:16;8.00;;;4.40;;
64188;SDS011;50493;50.970;10.082;2023-03-29T00:18:41;10.27;;;4.63;;
64188;SDS011;50493;50.970;10.082;2023-03-29T00:21:07;7.50;;;4.45;;
64188;SDS011;50493;50.970;10.082;2023-03-29T00:23:33;8.90;;;3.85;;
64188;SDS011;50493;50.970;10.082;2023-03-29T00:25:58;8.18;;;4.32;;
64188;SDS011;50493;50.970;10.082;2023-03-29T00:28:23;8.55;;;4.65;;
64188;SDS011;50493;50.970;10.082;2023-03-29T00:30:49;8.95;;;4.70;;
64188;SDS011;50493;50.970;10.082;2023-03-29T00:33:16;12.73;;;4.93;;
64188;SDS011;50493;50.970;10.082;2023-03-29T00:35:44;9.18;;;5.20;;
64188;SDS011;50493;50.970;10.082;2023-03-29T00:38:10;10.85;;;5.00;;
64188;SDS011;50493;50.970;10.082;2023-03-29T00:40:39;13.65;;;5.63;;
64188;SDS011;50493;50.970;10.082;2023-03-29T00:43:07;8.32;;;4.55;;
64188;SDS011;50493;50.970;10.082;2023-03-29T00:45:34;7.68;;;4.10;;
64188;SDS011;50493;50.970;10.082;2023-03-29T00:48:00;7.03;;;4.22;;
64188;SDS011;50493;50.970;10.082;2023-03-29T00:50:31;10.50;;;4.93;;
64188;SDS011;50493;50.970;10.082;2023-03-29T00:53:02;9.05;;;5.30;;
64188;SDS011;50493;50.970;10.082;2023-03-29T00:55:32;11.20;;;4.88;;
64188;SDS011;50493;50.970;10.082;2023-03-29T00:58:01;7.47;;;4.05;;
64188;SDS011;50493;50.970;10.082;2023-03-29T01:00:28;7.22;;;4.47;;
64188;SDS011;50493;50.970;10.082;2023-03-29T01:02:57;7.72;;;4.20;;
64188;SDS011;50493;50.970;10.082;2023-03-29T01:05:26;6.93;;;4.03;;
64188;SDS011;50493;50.970;10.082;2023-03-29T01:07:57;7.68;;;3.85;;
64188;SDS011;50493;50.970;10.082;2023-03-29T01:10:26;10.02;;;4.30;;
64188;SDS011;50493;50.970;10.082;2023-03-29T01:15:26;8.10;;;4.43;;
64188;SDS011;50493;50.970;10.082;2023-03-29T01:17:53;7.93;;;3.92;;
64188;SDS011;50493;50.970;10.082;2023-03-29T01:20:22;6.07;;;3.80;;
64188;SDS011;50493;50.970;10.082;2023-03-29T01:22:56;7.95;;;3.92;;
64188;SDS011;50493;50.970;10.082;2023-03-29T01:25:35;7.78;;;4.35;;
64188;SDS011;50493;50.970;10.082;2023-03-29T01:28:11;7.35;;;4.13;;
64188;SDS011;50493;50.970;10.082;2023-03-29T01:30:42;6.90;;;4.00;;
64188;SDS011;50493;50.970;10.082;2023-03-29T01:33:13;6.70;;;3.75;;
64188;SDS011;50493;50.970;10.082;2023-03-29T01:35:48;8.85;;;4.18;;
64188;SDS011;50493;50.970;10.082;2023-03-29T01:38:19;7.72;;;3.97;;
64188;SDS011;50493;50.970;10.082;2023-03-29T01:40:48;6.70;;;4.03;;
64188;SDS011;50493;50.970;10.082;2023-03-29T01:43:17;8.10;;;3.92;;
64188;SDS011;50493;50.970;10.082;2023-03-29T01:45:50;7.63;;;3.70;;
64188;SDS011;50493;50.970;10.082;2023-03-29T01:48:26;7.15;;;3.72;;
64188;SDS011;50493;50.970;10.082;2023-03-29T01:50:57;8.57;;;4.15;;
64188;SDS011;50493;50.970;10.082;2023-03-29T01:53:30;7.15;;;4.20;;
64188;SDS011;50493;50.970;10.082;2023-03-29T01:56:01;6.35;;;3.78;;
64188;SDS011;50493;50.970;10.082;2023-03-29T01:58:32;8.65;;;4.20;;
64188;SDS011;50493;50.970;10.082;2023-03-29T02:01:02;6.18;;;3.95;;
64188;SDS011;50493;50.970;10.082;2023-03-29T02:03:33;7.50;;;4.03;;
64188;SDS011;50493;50.970;10.082;2023-03-29T02:06:07;6.55;;;3.80;;
64188;SDS011;50493;50.970;10.082;2023-03-29T02:08:35;6.90;;;3.80;;
64188;SDS011;50493;50.970;10.082;2023-03-29T02:11:02;8.85;;;3.95;;
64188;SDS011;50493;50.970;10.082;2023-03-29T02:13:28;6.72;;;3.80;;
64188;SDS011;50493;50.970;10.082;2023-03-29T02:15:55;6.45;;;3.80;;
64188;SDS011;50493;50.970;10.082;2023-03-29T02:18:23;5.75;;;3.45;;
64188;SDS011;50493;50.970;10.082;2023-03-29T02:20:50;7.05;;;3.47;;
64188;SDS011;50493;50.970;10.082;2023-03-29T02:23:17;6.82;;;3.25;;
64188;SDS011;50493;50.970;10.082;2023-03-29T02:25:48;6.78;;;3.53;;
64188;SDS011;50493;50.970;10.082;2023-03-29T02:28:17;6.32;;;3.63;;
64188;SDS011;50493;50.970;10.082;2023-03-29T02:30:45;5.90;;;3.55;;
64188;SDS011;50493;50.970;10.082;2023-03-29T02:33:19;5.65;;;3.42;;
64188;SDS011;50493;50.970;10.082;2023-03-29T02:35:50;5.85;;;3.47;;
64188;SDS011;50493;50.970;10.082;2023-03-29T02:38:18;8.65;;;4.13;;
64188;SDS011;50493;50.970;10.082;2023-03-29T02:40:45;5.55;;;3.58;;
64188;SDS011;50493;50.970;10.082;2023-03-29T02:43:11;6.70;;;3.80;;
64188;SDS011;50493;50.970;10.082;2023-03-29T02:45:38;5.53;;;3.30;;
64188;SDS011;50493;50.970;10.082;2023-03-29T02:48:06;7.47;;;3.67;;
64188;SDS011;50493;50.970;10.082;2023-03-29T02:50:36;6.50;;;3.50;;
64188;SDS011;50493;50.970;10.082;2023-03-29T02:53:04;4.78;;;3.20;;
64188;SDS011;50493;50.970;10.082;2023-03-29T02:55:32;5.35;;;3.13;;
64188;SDS011;50493;50.970;10.082;2023-03-29T02:57:58;6.65;;;3.38;;
64188;SDS011;50493;50.970;10.082;2023-03-29T03:00:27;7.03;;;3.40;;
64188;SDS011;50493;50.970;10.082;2023-03-29T03:02:53;6.18;;;3.10;;
64188;SDS011;50493;50.970;10.082;2023-03-29T03:05:19;6.88;;;3.60;;
64188;SDS011;50493;50.970;10.082;2023-03-29T03:07:45;6.00;;;3.20;;
64188;SDS011;50493;50.970;10.082;2023-03-29T03:10:11;5.93;;;3.33;;
64188;SDS011;50493;50.970;10.082;2023-03-29T03:12:36;5.75;;;2.70;;
64188;SDS011;50493;50.970;10.082;2023-03-29T03:15:02;5.50;;;3.00;;
64188;SDS011;50493;50.970;10.082;2023-03-29T03:17:29;5.53;;;3.17;;
64188;SDS011;50493;50.970;10.082;2023-03-29T03:19:57;6.25;;;2.90;;
64188;SDS011;50493;50.970;10.082;2023-03-29T03:22:22;6.40;;;3.22;;
64188;SDS011;50493;50.970;10.082;2023-03-29T03:24:50;6.22;;;3.13;;
64188;SDS011;50493;50.970;10.082;2023-03-29T03:27:15;5.57;;;3.40;;
64188;SDS011;50493;50.970;10.082;2023-03-29T03:29:40;6.70;;;3.08;;
64188;SDS011;50493;50.970;10.082;2023-03-29T03:32:06;4.65;;;3.17;;
64188;SDS011;50493;50.970;10.082;2023-03-29T03:34:31;6.55;;;3.13;;
64188;SDS011;50493;50.970;10.082;2023-03-29T03:36:58;5.55;;;2.95;;
64188;SDS011;50493;50.970;10.082;2023-03-29T03:39:25;4.55;;;2.55;;
64188;SDS011;50493;50.970;10.082;2023-03-29T03:41:52;4.88;;;2.67;;
64188;SDS011;50493;50.970;10.082;2023-03-29T03:44:17;7.32;;;3.05;;
64188;SDS011;50493;50.970;10.082;2023-03-29T03:46:43;7.20;;;2.80;;
64188;SDS011;50493;50.970;10.082;2023-03-29T03:49:08;4.30;;;2.60;;
64188;SDS011;50493;50.970;10.082;2023-03-29T03:51:33;5.75;;;2.85;;
64188;SDS011;50493;50.970;10.082;2023-03-29T03:53:59;4.88;;;2.72;;
64188;SDS011;50493;50.970;10.082;2023-03-29T03:56:25;6.45;;;2.70;;
64188;SDS011;50493;50.970;10.082;2023-03-29T03:58:55;4.70;;;2.65;;
64188;SDS011;50493;50.970;10.082;2023-03-29T04:01:21;5.10;;;2.80;;
64188;SDS011;50493;50.970;10.082;2023-03-29T04:03:46;7.03;;;2.90;;
64188;SDS011;50493;50.970;10.082;2023-03-29T04:06:11;7.15;;;3.00;;
64188;SDS011;50493;50.970;10.082;2023-03-29T04:08:37;5.63;;;3.00;;
64188;SDS011;50493;50.970;10.082;2023-03-29T04:11:03;3.85;;;2.50;;
64188;SDS011;50493;50.970;10.082;2023-03-29T04:13:28;4.30;;;2.50;;
64188;SDS011;50493;50.970;10.082;2023-03-29T04:15:55;6.18;;;2.90;;
64188;SDS011;50493;50.970;10.082;2023-03-29T04:18:21;5.35;;;2.80;;
64188;SDS011;50493;50.970;10.082;2023-03-29T04:20:47;5.00;;;2.78;;
64188;SDS011;50493;50.970;10.082;2023-03-29T04:23:12;4.07;;;2.40;;
64188;SDS011;50493;50.970;10.082;2023-03-29T04:25:38;5.72;;;2.75;;
64188;SDS011;50493;50.970;10.082;2023-03-29T04:28:04;5.63;;;2.92;;
64188;SDS011;50493;50.970;10.082;2023-03-29T04:30:30;5.05;;;3.13;;
64188;SDS011;50493;50.970;10.082;2023-03-29T04:32:56;6.97;;;3.55;;
64188;SDS011;50493;50.970;10.082;2023-03-29T04:35:22;5.53;;;2.70;;
64188;SDS011;50493;50.970;10.082;2023-03-29T04:37:48;5.60;;;3.00;;
64188;SDS011;50493;50.970;10.082;2023-03-29T04:40:15;5.32;;;3.05;;
64188;SDS011;50493;50.970;10.082;2023-03-29T04:42:43;5.07;;;2.80;;
64188;SDS011;50493;50.970;10.082;2023-03-29T04:45:10;5.38;;;2.90;;
64188;SDS011;50493;50.970;10.082;2023-03-29T04:47:37;5.38;;;3.10;;
64188;SDS011;50493;50.970;10.082;2023-03-29T04:50:05;5.65;;;3.28;;
64188;SDS011;50493;50.970;10.082;2023-03-29T04:52:32;6.80;;;3.10;;
64188;SDS011;50493;50.970;10.082;2023-03-29T04:54:58;5.97;;;2.90;;
64188;SDS011;50493;50.970;10.082;2023-03-29T04:57:23;5.18;;;2.75;;
64188;SDS011;50493;50.970;10.082;2023-03-29T04:59:49;5.03;;;2.85;;
64188;SDS011;50493;50.970;10.082;2023-03-29T05:02:14;5.20;;;2.67;;
64188;SDS011;50493;50.970;10.082;2023-03-29T05:04:40;5.78;;;2.55;;
64188;SDS011;50493;50.970;10.082;2023-03-29T05:07:06;4.80;;;2.70;;
64188;SDS011;50493;50.970;10.082;2023-03-29T05:09:32;5.90;;;2.85;;
64188;SDS011;50493;50.970;10.082;2023-03-29T05:11:57;5.95;;;2.67;;
64188;SDS011;50493;50.970;10.082;2023-03-29T05:14:22;5.22;;;2.78;;
64188;SDS011;50493;50.970;10.082;2023-03-29T05:16:48;5.28;;;3.13;;
64188;SDS011;50493;50.970;10.082;2023-03-29T05:19:14;7.28;;;3.00;;
64188;SDS011;50493;50.970;10.082;2023-03-29T05:21:39;4.35;;;2.38;;
64188;SDS011;50493;50.970;10.082;2023-03-29T05:24:06;6.18;;;2.60;;
64188;SDS011;50493;50.970;10.082;2023-03-29T05:26:32;5.18;;;2.70;;
64188;SDS011;50493;50.970;10.082;2023-03-29T05:28:57;4.65;;;2.70;;
64188;SDS011;50493;50.970;10.082;2023-03-29T05:31:23;4.80;;;2.70;;
64188;SDS011;50493;50.970;10.082;2023-03-29T05:33:48;4.72;;;2.80;;
64188;SDS011;50493;50.970;10.082;2023-03-29T05:36:15;5.18;;;2.90;;
64188;SDS011;50493;50.970;10.082;2023-03-29T05:38:42;4.40;;;2.72;;
64188;SDS011;50493;50.970;10.082;2023-03-29T05:41:12;5.90;;;3.05;;
64188;SDS011;50493;50.970;10.082;2023-03-29T05:43:38;5.35;;;2.90;;
64188;SDS011;50493;50.970;10.082;2023-03-29T05:46:04;5.10;;;2.88;;
64188;SDS011;50493;50.970;10.082;2023-03-29T05:48:30;6.43;;;3.10;;
64188;SDS011;50493;50.970;10.082;2023-03-29T05:50:55;6.65;;;3.08;;
64188;SDS011;50493;50.970;10.082;2023-03-29T05:53:22;4.85;;;2.78;;
64188;SDS011;50493;50.970;10.082;2023-03-29T05:55:49;5.18;;;2.75;;
64188;SDS011;50493;50.970;10.082;2023-03-29T05:58:16;5.38;;;2.92;;
64188;SDS011;50493;50.970;10.082;2023-03-29T06:00:43;5.50;;;2.70;;
64188;SDS011;50493;50.970;10.082;2023-03-29T06:03:11;4.53;;;2.80;;
64188;SDS011;50493;50.970;10.082;2023-03-29T06:05:42;6.15;;;2.95;;
64188;SDS011;50493;50.970;10.082;2023-03-29T06:08:08;5.03;;;2.80;;
64188;SDS011;50493;50.970;10.082;2023-03-29T06:10:35;7.38;;;3.00;;
64188;SDS011;50493;50.970;10.082;2023-03-29T06:13:01;5.82;;;2.85;;
64188;SDS011;50493;50.970;10.082;2023-03-29T06:15:28;5.28;;;2.75;;
64188;SDS011;50493;50.970;10.082;2023-03-29T06:17:53;5.03;;;2.67;;
64188;SDS011;50493;50.970;10.082;2023-03-29T06:20:19;6.13;;;2.60;;
64188;SDS011;50493;50.970;10.082;2023-03-29T06:22:45;4.60;;;2.55;;
64188;SDS011;50493;50.970;10.082;2023-03-29T06:25:11;8.63;;;3.10;;
64188;SDS011;50493;50.970;10.082;2023-03-29T06:27:39;6.85;;;3.03;;
64188;SDS011;50493;50.970;10.082;2023-03-29T06:30:05;6.32;;;3.22;;
64188;SDS011;50493;50.970;10.082;2023-03-29T06:32:33;7.50;;;2.92;;
64188;SDS011;50493;50.970;10.082;2023-03-29T06:34:59;7.53;;;3.42;;
64188;SDS011;50493;50.970;10.082;2023-03-29T06:37:25;5.65;;;3.05;;
64188;SDS011;50493;50.970;10.082;2023-03-29T06:39:51;7.50;;;2.85;;
64188;SDS011;50493;50.970;10.082;2023-03-29T06:42:16;4.00;;;2.72;;
64188;SDS011;50493;50.970;10.082;2023-03-29T06:44:42;5.05;;;2.55;;
64188;SDS011;50493;50.970;10.082;2023-03-29T06:47:08;4.78;;;2.80;;
64188;SDS011;50493;50.970;10.082;2023-03-29T06:49:34;12.32;;;6.93;;
64188;SDS011;50493;50.970;10.082;2023-03-29T06:52:00;6.43;;;2.95;;
64188;SDS011;50493;50.970;10.082;2023-03-29T06:54:25;7.30;;;2.50;;
64188;SDS011;50493;50.970;10.082;2023-03-29T06:56:51;5.57;;;2.95;;
64188;SDS011;50493;50.970;10.082;2023-03-29T06:59:16;4.40;;;2.15;;
64188;SDS011;50493;50.970;10.082;2023-03-29T07:01:42;9.43;;;3.08;;
64188;SDS011;50493;50.970;10.082;2023-03-29T07:04:09;6.90;;;3.05;;
64188;SDS011;50493;50.970;10.082;2023-03-29T07:06:36;6.78;;;2.90;;
64188;SDS011;50493;50.970;10.082;2023-03-29T07:09:03;5.88;;;2.78;;
64188;SDS011;50493;50.970;10.082;2023-03-29T07:11:30;6.30;;;3.00;;
64188;SDS011;50493;50.970;10.082;2023-03-29T07:13:59;6.38;;;3.35;;
64188;SDS011;50493;50.970;10.082;2023-03-29T07:16:24;5.95;;;2.92;;
64188;SDS011;50493;50.970;10.082;2023-03-29T07:18:51;4.75;;;2.67;;
64188;SDS011;50493;50.970;10.082;2023-03-29T07:21:16;5.32;;;2.50;;
64188;SDS011;50493;50.970;10.082;2023-03-29T07:23:43;4.93;;;2.70;;
64188;SDS011;50493;50.970;10.082;2023-03-29T07:26:08;7.30;;;3.50;;
64188;SDS011;50493;50.970;10.082;2023-03-29T07:28:34;6.70;;;3.38;;
64188;SDS011;50493;50.970;10.082;2023-03-29T07:31:03;4.65;;;2.53;;
64188;SDS011;50493;50.970;10.082;2023-03-29T07:33:30;6.90;;;3.30;;
64188;SDS011;50493;50.970;10.082;2023-03-29T07:35:56;4.95;;;2.63;;
64188;SDS011;50493;50.970;10.082;2023-03-29T07:38:21;3.78;;;2.35;;
64188;SDS011;50493;50.970;10.082;2023-03-29T07:40:48;6.80;;;3.10;;
64188;SDS011;50493;50.970;10.082;2023-03-29T07:43:13;5.40;;;2.72;;
64188;SDS011;50493;50.970;10.082;2023-03-29T07:45:38;6.47;;;2.97;;
64188;SDS011;50493;50.970;10.082;2023-03-29T07:48:08;6.10;;;3.05;;
64188;SDS011;50493;50.970;10.082;2023-03-29T07:50:34;4.82;;;2.60;;
64188;SDS011;50493;50.970;10.082;2023-03-29T07:52:59;5.85;;;3.00;;
64188;SDS011;50493;50.970;10.082;2023-03-29T07:55:25;6.75;;;3.17;;
64188;SDS011;50493;50.970;10.082;2023-03-29T07:57:52;4.88;;;2.45;;
64188;SDS011;50493;50.970;10.082;2023-03-29T08:00:17;8.10;;;2.80;;
64188;SDS011;50493;50.970;10.082;2023-03-29T08:02:44;8.73;;;3.40;;
64188;SDS011;50493;50.970;10.082;2023-03-29T08:05:11;6.38;;;3.33;;
64188;SDS011;50493;50.970;10.082;2023-03-29T08:07:38;5.38;;;3.17;;
64188;SDS011;50493;50.970;10.082;2023-03-29T08:10:06;5.88;;;3.17;;
64188;SDS011;50493;50.970;10.082;2023-03-29T08:12:33;5.10;;;2.72;;
64188;SDS011;50493;50.970;10.082;2023-03-29T08:15:00;5.75;;;3.10;;
64188;SDS011;50493;50.970;10.082;2023-03-29T08:17:25;6.55;;;3.40;;
64188;SDS011;50493;50.970;10.082;2023-03-29T08:19:50;6.35;;;3.10;;
64188;SDS011;50493;50.970;10.082;2023-03-29T08:22:16;7.70;;;3.30;;
64188;SDS011;50493;50.970;10.082;2023-03-29T08:24:41;5.80;;;2.70;;
64188;SDS011;50493;50.970;10.082;2023-03-29T08:27:07;4.40;;;2.72;;
64188;SDS011;50493;50.970;10.082;2023-03-29T08:29:32;5.63;;;3.40;;
64188;SDS011;50493;50.970;10.082;2023-03-29T08:31:59;4.88;;;3.00;;
64188;SDS011;50493;50.970;10.082;2023-03-29T08:34:24;5.43;;;2.63;;
64188;SDS011;50493;50.970;10.082;2023-03-29T08:36:50;6.15;;;2.65;;
64188;SDS011;50493;50.970;10.082;2023-03-29T08:39:17;6.50;;;3.20;;
64188;SDS011;50493;50.970;10.082;2023-03-29T08:41:45;5.68;;;2.88;;
64188;SDS011;50493;50.970;10.082;2023-03-29T08:44:26;4.97;;;2.30;;
64188;SDS011;50493;50.970;10.082;2023-03-29T08:47:08;7.20;;;3.67;;
64188;SDS011;50493;50.970;10.082;2023-03-29T08:49:41;4.40;;;2.50;;
64188;SDS011;50493;50.970;10.082;2023-03-29T08:52:13;6.47;;;3.10;;
64188;SDS011;50493;50.970;10.082;2023-03-29T08:54:44;8.95;;;3.50;;
64188;SDS011;50493;50.970;10.082;2023-03-29T08:57:14;8.52;;;3.42;;
64188;SDS011;50493;50.970;10.082;2023-03-29T08:59:44;4.15;;;2.58;;
64188;SDS011;50493;50.970;10.082;2023-03-29T09:02:18;7.85;;;2.95;;
64188;SDS011;50493;50.970;10.082;2023-03-29T09:04:46;5.75;;;2.67;;
64188;SDS011;50493;50.970;10.082;2023-03-29T09:07:12;5.05;;;2.70;;
64188;SDS011;50493;50.970;10.082;2023-03-29T09:09:40;5.57;;;2.28;;
64188;SDS011;50493;50.970;10.082;2023-03-29T09:12:09;6.53;;;3.03;;
64188;SDS011;50493;50.970;10.082;2023-03-29T09:14:46;5.40;;;2.60;;
64188;SDS011;50493;50.970;10.082;2023-03-29T09:17:24;5.35;;;2.70;;
64188;SDS011;50493;50.970;10.082;2023-03-29T09:20:00;5.15;;;2.63;;
64188;SDS011;50493;50.970;10.082;2023-03-29T09:22:38;4.35;;;2.28;;
64188;SDS011;50493;50.970;10.082;2023-03-29T09:25:09;4.97;;;2.80;;
64188;SDS011;50493;50.970;10.082;2023-03-29T09:27:42;4.47;;;2.60;;
64188;SDS011;50493;50.970;10.082;2023-03-29T09:30:13;4.97;;;2.80;;
64188;SDS011;50493;50.970;10.082;2023-03-29T09:32:45;5.75;;;2.55;;
64188;SDS011;50493;50.970;10.082;2023-03-29T09:35:16;6.47;;;3.15;;
64188;SDS011;50493;50.970;10.082;2023-03-29T09:37:47;5.65;;;2.97;;
64188;SDS011;50493;50.970;10.082;2023-03-29T09:40:16;6.75;;;2.55;;
64188;SDS011;50493;50.970;10.082;2023-03-29T09:42:44;5.75;;;2.70;;
64188;SDS011;50493;50.970;10.082;2023-03-29T09:45:15;4.88;;;2.75;;
64188;SDS011;50493;50.970;10.082;2023-03-29T09:47:43;4.45;;;2.80;;
64188;SDS011;50493;50.970;10.082;2023-03-29T09:50:14;5.32;;;2.50;;
64188;SDS011;50493;50.970;10.082;2023-03-29T09:52:42;3.75;;;2.15;;
64188;SDS011;50493;50.970;10.082;2023-03-29T09:55:11;4.22;;;2.22;;
64188;SDS011;50493;50.970;10.082;2023-03-29T09:57:38;6.25;;;2.15;;
64188;SDS011;50493;50.970;10.082;2023-03-29T10:00:03;5.57;;;2.10;;
64188;SDS011;50493;50.970;10.082;2023-03-29T10:02:30;4.05;;;2.17;;
64188;SDS011;50493;50.970;10.082;2023-03-29T10:04:57;4.38;;;2.22;;
64188;SDS011;50493;50.970;10.082;2023-03-29T10:07:32;5.93;;;2.60;;
64188;SDS011;50493;50.970;10.082;2023-03-29T10:10:06;4.50;;;2.60;;
64188;SDS011;50493;50.970;10.082;2023-03-29T10:12:33;5.65;;;2.33;;
64188;SDS011;50493;50.970;10.082;2023-03-29T10:14:59;6.90;;;2.58;;
64188;SDS011;50493;50.970;10.082;2023-03-29T10:17:26;5.28;;;2.63;;
64188;SDS011;50493;50.970;10.082;2023-03-29T10:19:54;5.63;;;2.17;;
64188;SDS011;50493;50.970;10.082;2023-03-29T10:22:23;5.28;;;2.40;;
64188;SDS011;50493;50.970;10.082;2023-03-29T10:24:52;3.97;;;2.00;;
64188;SDS011;50493;50.970;10.082;2023-03-29T10:27:19;4.28;;;2.58;;
64188;SDS011;50493;50.970;10.082;2023-03-29T10:29:47;4.50;;;1.75;;
64188;SDS011;50493;50.970;10.082;2023-03-29T10:32:15;3.05;;;1.70;;
64188;SDS011;50493;50.970;10.082;2023-03-29T10:34:47;4.63;;;2.17;;
64188;SDS011;50493;50.970;10.082;2023-03-29T10:37:14;6.18;;;2.80;;
64188;SDS011;50493;50.970;10.082;2023-03-29T10:39:44;5.53;;;2.50;;
64188;SDS011;50493;50.970;10.082;2023-03-29T10:42:12;5.13;;;2.58;;
64188;SDS011;50493;50.970;10.082;2023-03-29T10:44:40;5.25;;;2.72;;
64188;SDS011;50493;50.970;10.082;2023-03-29T10:47:07;4.80;;;2.17;;
64188;SDS011;50493;50.970;10.082;2023-03-29T10:49:40;4.47;;;2.20;;
64188;SDS011;50493;50.970;10.082;2023-03-29T10:52:08;4.30;;;2.30;;
64188;SDS011;50493;50.970;10.082;2023-03-29T10:54:33;5.15;;;2.30;;
64188;SDS011;50493;50.970;10.082;2023-03-29T10:57:02;3.50;;;2.10;;
64188;SDS011;50493;50.970;10.082;2023-03-29T10:59:34;4.20;;;2.22;;
64188;SDS011;50493;50.970;10.082;2023-03-29T11:02:28;3.90;;;2.25;;
64188;SDS011;50493;50.970;10.082;2023-03-29T11:05:15;3.80;;;2.17;;
64188;SDS011;50493;50.970;10.082;2023-03-29T11:07:51;4.57;;;2.50;;
64188;SDS011;50493;50.970;10.082;2023-03-29T11:10:32;3.80;;;2.05;;
64188;SDS011;50493;50.970;10.082;2023-03-29T11:13:06;6.38;;;2.40;;
64188;SDS011;50493;50.970;10.082;2023-03-29T11:15:40;5.38;;;2.70;;
64188;SDS011;50493;50.970;10.082;2023-03-29T11:18:20;6.80;;;3.15;;
64188;SDS011;50493;50.970;10.082;2023-03-29T11:21:00;4.13;;;2.50;;
64188;SDS011;50493;50.970;10.082;2023-03-29T11:23:34;6.63;;;2.63;;
64188;SDS011;50493;50.970;10.082;2023-03-29T11:26:10;5.85;;;3.38;;
64188;SDS011;50493;50.970;10.082;2023-03-29T11:28:44;6.00;;;2.80;;
64188;SDS011;50493;50.970;10.082;2023-03-29T11:31:18;5.82;;;2.80;;
64188;SDS011;50493;50.970;10.082;2023-03-29T11:33:55;6.85;;;2.75;;
64188;SDS011;50493;50.970;10.082;2023-03-29T11:36:33;4.65;;;2.55;;
64188;SDS011;50493;50.970;10.082;2023-03-29T11:39:09;6.05;;;2.60;;
64188;SDS011;50493;50.970;10.082;2023-03-29T11:41:45;5.20;;;2.80;;
64188;SDS011;50493;50.970;10.082;2023-03-29T11:44:15;5.45;;;2.90;;
64188;SDS011;50493;50.970;10.082;2023-03-29T11:46:44;8.07;;;2.92;;
64188;SDS011;50493;50.970;10.082;2023-03-29T11:49:15;5.78;;;2.85;;
64188;SDS011;50493;50.970;10.082;2023-03-29T11:51:46;4.90;;;2.75;;
64188;SDS011;50493;50.970;10.082;2023-03-29T11:54:19;6.25;;;2.70;;
64188;SDS011;50493;50.970;10.082;2023-03-29T11:56:50;5.10;;;2.40;;
64188;SDS011;50493;50.970;10.082;2023-03-29T11:59:23;7.90;;;2.70;;
64188;SDS011;50493;50.970;10.082;2023-03-29T12:01:55;4.75;;;2.58;;
64188;SDS011;50493;50.970;10.082;2023-03-29T12:04:27;5.00;;;2.40;;
64188;SDS011;50493;50.970;10.082;2023-03-29T12:06:58;5.90;;;2.80;;
64188;SDS011;50493;50.970;10.082;2023-03-29T12:09:33;7.55;;;2.70;;
64188;SDS011;50493;50.970;10.082;2023-03-29T12:12:05;6.93;;;2.97;;
64188;SDS011;50493;50.970;10.082;2023-03-29T12:14:38;4.93;;;2.60;;
64188;SDS011;50493;50.970;10.082;2023-03-29T12:17:11;5.15;;;2.80;;
64188;SDS011;50493;50.970;10.082;2023-03-29T12:22:09;3.50;;;1.85;;
64188;SDS011;50493;50.970;10.082;2023-03-29T12:24:35;4.20;;;2.60;;
64188;SDS011;50493;50.970;10.082;2023-03-29T12:29:45;6.18;;;2.50;;
64188;SDS011;50493;50.970;10.082;2023-03-29T12:32:23;3.95;;;2.40;;
64188;SDS011;50493;50.970;10.082;2023-03-29T12:35:02;6.95;;;2.70;;
64188;SDS011;50493;50.970;10.082;2023-03-29T12:37:44;4.28;;;2.30;;
64188;SDS011;50493;50.970;10.082;2023-03-29T12:40:17;5.75;;;2.53;;
64188;SDS011;50493;50.970;10.082;2023-03-29T12:42:45;4.10;;;2.50;;
64188;SDS011;50493;50.970;10.082;2023-03-29T12:45:17;4.05;;;2.20;;
64188;SDS011;50493;50.970;10.082;2023-03-29T12:47:45;4.80;;;2.38;;
64188;SDS011;50493;50.970;10.082;2023-03-29T12:50:21;4.88;;;2.63;;
64188;SDS011;50493;50.970;10.082;2023-03-29T12:52:50;4.38;;;2.60;;
64188;SDS011;50493;50.970;10.082;2023-03-29T12:55:16;5.60;;;2.20;;
64188;SDS011;50493;50.970;10.082;2023-03-29T12:57:55;3.60;;;2.10;;
64188;SDS011;50493;50.970;10.082;2023-03-29T13:00:30;5.15;;;2.50;;
64188;SDS011;50493;50.970;10.082;2023-03-29T13:02:58;5.60;;;2.50;;
64188;SDS011;50493;50.970;10.082;2023-03-29T13:05:26;5.25;;;2.78;;
64188;SDS011;50493;50.970;10.082;2023-03-29T13:07:53;4.03;;;2.30;;
64188;SDS011;50493;50.970;10.082;2023-03-29T13:10:28;7.38;;;2.72;;
64188;SDS011;50493;50.970;10.082;2023-03-29T13:13:06;5.40;;;2.60;;
64188;SDS011;50493;50.970;10.082;2023-03-29T13:15:36;4.85;;;2.60;;
64188;SDS011;50493;50.970;10.082;2023-03-29T13:18:05;4.85;;;2.70;;
64188;SDS011;50493;50.970;10.082;2023-03-29T13:20:40;5.80;;;2.70;;
64188;SDS011;50493;50.970;10.082;2023-03-29T13:23:23;6.93;;;2.65;;
64188;SDS011;50493;50.970;10.082;2023-03-29T13:25:57;5.72;;;2.95;;
64188;SDS011;50493;50.970;10.082;2023-03-29T13:28:38;5.82;;;2.63;;
64188;SDS011;50493;50.970;10.082;2023-03-29T13:31:23;6.68;;;2.70;;
64188;SDS011;50493;50.970;10.082;2023-03-29T13:34:00;5.28;;;2.17;;
64188;SDS011;50493;50.970;10.082;2023-03-29T13:36:37;4.97;;;2.20;;
64188;SDS011;50493;50.970;10.082;2023-03-29T13:39:12;5.00;;;2.47;;
64188;SDS011;50493;50.970;10.082;2023-03-29T13:41:45;4.40;;;2.13;;
64188;SDS011;50493;50.970;10.082;2023-03-29T13:44:16;4.80;;;2.10;;
64188;SDS011;50493;50.970;10.082;2023-03-29T13:46:59;3.85;;;2.20;;
64188;SDS011;50493;50.970;10.082;2023-03-29T13:49:27;4.95;;;2.15;;
64188;SDS011;50493;50.970;10.082;2023-03-29T13:51:59;3.88;;;2.10;;
64188;SDS011;50493;50.970;10.082;2023-03-29T13:54:29;4.43;;;2.00;;
64188;SDS011;50493;50.970;10.082;2023-03-29T13:57:00;3.60;;;1.92;;
64188;SDS011;50493;50.970;10.082;2023-03-29T13:59:30;3.67;;;2.03;;
64188;SDS011;50493;50.970;10.082;2023-03-29T14:02:04;4.18;;;2.15;;
64188;SDS011;50493;50.970;10.082;2023-03-29T14:04:30;4.30;;;2.10;;
64188;SDS011;50493;50.970;10.082;2023-03-29T14:07:01;5.18;;;2.20;;
64188;SDS011;50493;50.970;10.082;2023-03-29T14:09:29;3.85;;;2.17;;
64188;SDS011;50493;50.970;10.082;2023-03-29T14:11:57;4.60;;;2.20;;
64188;SDS011;50493;50.970;10.082;2023-03-29T14:14:23;5.60;;;2.35;;
64188;SDS011;50493;50.970;10.082;2023-03-29T14:16:51;4.10;;;2.00;;
64188;SDS011;50493;50.970;10.082;2023-03-29T14:19:23;4.90;;;1.80;;
64188;SDS011;50493;50.970;10.082;2023-03-29T14:21:53;4.25;;;2.28;;
64188;SDS011;50493;50.970;10.082;2023-03-29T14:24:19;4.00;;;2.10;;
64188;SDS011;50493;50.970;10.082;2023-03-29T14:26:46;2.90;;;1.45;;
64188;SDS011;50493;50.970;10.082;2023-03-29T14:29:12;4.57;;;1.67;;
64188;SDS011;50493;50.970;10.082;2023-03-29T14:31:39;3.22;;;1.67;;
64188;SDS011;50493;50.970;10.082;2023-03-29T14:34:06;4.53;;;2.28;;
64188;SDS011;50493;50.970;10.082;2023-03-29T14:36:36;3.83;;;1.50;;
64188;SDS011;50493;50.970;10.082;2023-03-29T14:39:03;3.22;;;1.70;;
64188;SDS011;50493;50.970;10.082;2023-03-29T14:41:29;3.50;;;1.88;;
64188;SDS011;50493;50.970;10.082;2023-03-29T14:43:57;3.63;;;1.75;;
64188;SDS011;50493;50.970;10.082;2023-03-29T14:46:24;3.90;;;2.00;;
64188;SDS011;50493;50.970;10.082;2023-03-29T14:48:51;7.20;;;1.70;;
64188;SDS011;50493;50.970;10.082;2023-03-29T14:51:17;3.78;;;2.00;;